Time;durP1;ratioP1;P1;durP2;ratioP2;P2;SDS_P1;SDS_P2;PMS_P1;PMS_P2;Temp;Humidity;BMP_temperature;BMP_pressure;BME280_temperature;BME280_humidity;BME280_pressure;Samples;Min_cycle;Max_cycle;Signal;HPM_P1;HPM_P2
2022/04/16 00:01:47;;;;;;;3.22;2.42;;;;;;;;;;5050276;28;20394;-70
2022/04/16 00:04:12;;;;;;;4.70;2.70;;;;;;;;;;5050058;28;20041;-71
2022/04/16 00:06:38;;;;;;;3.50;2.67;;;;;;;;;;5050103;28;20032;-71
2022/04/16 00:09:04;;;;;;;3.05;2.58;;;;;;;;;;5049812;28;20021;-71
2022/04/16 00:11:29;;;;;;;3.85;2.80;;;;;;;;;;5049803;28;20025;-71
2022/04/16 00:13:55;;;;;;;4.55;2.72;;;;;;;;;;5049655;28;20052;-71
2022/04/16 00:16:21;;;;;;;3.65;2.45;;;;;;;;;;5050411;28;20040;-71
2022/04/16 00:18:46;;;;;;;3.05;2.75;;;;;;;;;;5049797;28;20044;-71
2022/04/16 00:21:12;;;;;;;4.07;2.88;;;;;;;;;;5049960;28;20040;-71
2022/04/16 00:23:41;;;;;;;4.90;2.88;;;;;;;;;;5049931;28;20518;-71
2022/04/16 00:26:07;;;;;;;3.28;2.63;;;;;;;;;;5049670;28;20032;-71
2022/04/16 00:28:35;;;;;;;4.32;2.60;;;;;;;;;;5049963;28;20043;-71
2022/04/16 00:31:01;;;;;;;2.90;2.50;;;;;;;;;;5049789;28;20031;-71
2022/04/16 00:33:26;;;;;;;2.58;2.30;;;;;;;;;;5049817;28;20021;-71
2022/04/16 00:35:52;;;;;;;2.78;2.47;;;;;;;;;;5050154;28;20025;-71
2022/04/16 00:38:17;;;;;;;3.35;2.70;;;;;;;;;;5049457;28;20078;-71
2022/04/16 00:40:42;;;;;;;4.95;2.83;;;;;;;;;;5049857;28;20033;-71
2022/04/16 00:43:19;;;;;;;3.50;2.53;;;;;;;;;;5049873;28;20044;-71
2022/04/16 00:45:44;;;;;;;3.65;2.45;;;;;;;;;;5049520;28;20025;-71
2022/04/16 00:48:10;;;;;;;4.13;2.55;;;;;;;;;;5049373;28;20100;-71
2022/04/16 00:50:35;;;;;;;3.22;2.80;;;;;;;;;;5049669;28;20021;-71
2022/04/16 00:53:01;;;;;;;3.63;2.47;;;;;;;;;;5049572;28;20390;-71
2022/04/16 00:55:26;;;;;;;3.00;2.60;;;;;;;;;;5049348;28;20467;-71
2022/04/16 00:57:51;;;;;;;2.70;2.50;;;;;;;;;;5049377;28;20052;-71
2022/04/16 01:00:17;;;;;;;4.47;2.60;;;;;;;;;;5049272;28;20107;-71
2022/04/16 01:02:42;;;;;;;2.70;2.40;;;;;;;;;;5049839;28;20025;-71
2022/04/16 01:05:10;;;;;;;3.15;2.33;;;;;;;;;;5049499;28;20112;-71
2022/04/16 01:07:36;;;;;;;3.88;2.50;;;;;;;;;;5049911;28;20066;-71
2022/04/16 01:10:02;;;;;;;2.72;2.30;;;;;;;;;;5049103;28;20024;-71
2022/04/16 01:12:27;;;;;;;3.28;2.40;;;;;;;;;;5049660;28;20027;-71
2022/04/16 01:14:53;;;;;;;2.90;2.60;;;;;;;;;;5049892;28;20021;-71
2022/04/16 01:17:19;;;;;;;2.83;2.30;;;;;;;;;;5049296;28;20028;-72
2022/04/16 01:19:44;;;;;;;3.45;2.20;;;;;;;;;;5049195;28;20024;-71
2022/04/16 01:22:13;;;;;;;4.10;2.70;;;;;;;;;;5049226;28;20037;-71
2022/04/16 01:24:43;;;;;;;3.35;2.38;;;;;;;;;;5050385;28;20032;-71
2022/04/16 01:27:09;;;;;;;4.00;2.42;;;;;;;;;;5053237;28;20138;-71
2022/04/16 01:29:35;;;;;;;2.53;2.10;;;;;;;;;;5052864;28;20021;-71
2022/04/16 01:32:00;;;;;;;2.47;2.25;;;;;;;;;;5053153;28;20031;-71
2022/04/16 01:34:25;;;;;;;2.78;2.35;;;;;;;;;;5052910;28;20430;-71
2022/04/16 01:36:52;;;;;;;2.70;2.10;;;;;;;;;;5052596;28;20021;-71
2022/04/16 01:39:17;;;;;;;3.15;2.55;;;;;;;;;;5052315;28;20435;-71
2022/04/16 01:41:43;;;;;;;2.47;2.15;;;;;;;;;;5052794;28;20059;-71
2022/04/16 01:44:08;;;;;;;2.55;2.20;;;;;;;;;;5052603;28;20047;-71
2022/04/16 01:46:33;;;;;;;3.28;2.35;;;;;;;;;;5052519;28;20394;-71
2022/04/16 01:48:59;;;;;;;2.72;2.35;;;;;;;;;;5052727;28;20067;-71
2022/04/16 01:51:25;;;;;;;3.42;2.30;;;;;;;;;;5052469;28;20052;-71
2022/04/16 01:53:50;;;;;;;2.60;2.40;;;;;;;;;;5052617;28;20053;-71
2022/04/16 01:56:16;;;;;;;2.78;2.42;;;;;;;;;;5052342;28;20033;-71
2022/04/16 01:58:43;;;;;;;3.20;2.70;;;;;;;;;;5052088;28;20029;-71
2022/04/16 02:01:09;;;;;;;2.83;2.40;;;;;;;;;;5052378;28;20027;-71
2022/04/16 02:03:36;;;;;;;3.10;2.60;;;;;;;;;;5052320;28;20025;-70
2022/04/16 02:06:02;;;;;;;2.40;2.15;;;;;;;;;;5052195;28;20079;-71
2022/04/16 02:08:27;;;;;;;4.05;2.47;;;;;;;;;;5052159;28;20032;-72
2022/04/16 02:10:52;;;;;;;2.75;2.40;;;;;;;;;;5052420;28;20227;-71
2022/04/16 02:13:18;;;;;;;2.85;2.30;;;;;;;;;;5052322;28;20025;-71
2022/04/16 02:15:43;;;;;;;2.60;2.35;;;;;;;;;;5052154;28;20502;-71
2022/04/16 02:18:08;;;;;;;2.30;2.10;;;;;;;;;;5051786;28;20517;-71
2022/04/16 02:20:36;;;;;;;4.05;2.63;;;;;;;;;;5051970;28;20021;-71
2022/04/16 02:23:02;;;;;;;2.78;2.50;;;;;;;;;;5051840;28;20025;-71
2022/04/16 02:25:28;;;;;;;4.28;2.75;;;;;;;;;;5051804;28;20023;-72
2022/04/16 02:27:53;;;;;;;2.85;2.47;;;;;;;;;;5051736;28;20029;-72
2022/04/16 02:30:19;;;;;;;2.88;2.55;;;;;;;;;;5051988;28;20025;-72
2022/04/16 02:32:52;;;;;;;4.00;2.80;;;;;;;;;;5051712;28;20368;-71
2022/04/16 02:35:17;;;;;;;;;;;;;;;;;;5051706;28;20029;-71
2022/04/16 02:37:44;;;;;;;2.75;2.35;;;;;;;;;;5072371;22;20427;-76
2022/04/16 02:40:11;;;;;;;3.42;2.60;;;;;;;;;;5031941;28;20043;-78
2022/04/16 02:42:37;;;;;;;3.78;2.58;;;;;;;;;;5032401;28;20109;-77
2022/04/16 02:47:48;;;;;;;3.90;2.60;;;;;;;;;;5032092;28;20128;-76
2022/04/16 02:50:14;;;;;;;2.97;2.40;;;;;;;;;;5032179;28;20029;-76
2022/04/16 02:52:41;;;;;;;2.75;2.20;;;;;;;;;;5032095;28;20021;-77
2022/04/16 02:55:07;;;;;;;3.17;2.20;;;;;;;;;;5032534;28;20101;-75
2022/04/16 02:57:33;;;;;;;2.95;2.33;;;;;;;;;;5032252;28;20104;-76
2022/04/16 02:59:58;;;;;;;2.50;2.30;;;;;;;;;;5032095;28;20100;-76
2022/04/16 03:02:24;;;;;;;2.83;2.50;;;;;;;;;;5032354;28;20455;-77
2022/04/16 03:04:50;;;;;;;3.10;2.72;;;;;;;;;;5032445;28;20030;-77
2022/04/16 03:07:18;;;;;;;2.85;2.53;;;;;;;;;;5032559;28;20021;-76
2022/04/16 03:09:44;;;;;;;2.90;2.17;;;;;;;;;;5031807;28;20025;-76
2022/04/16 03:12:09;;;;;;;2.92;2.50;;;;;;;;;;5032160;28;20117;-76
2022/04/16 03:17:35;;;;;;;2.88;2.53;;;;;;;;;;5032306;28;20537;-76
2022/04/16 03:20:05;;;;;;;4.85;2.72;;;;;;;;;;5031492;28;20057;-77
2022/04/16 03:22:33;;;;;;;3.92;2.97;;;;;;;;;;5013710;28;20068;-76
2022/04/16 03:24:58;;;;;;;3.13;2.75;;;;;;;;;;5031863;28;20026;-77
2022/04/16 03:27:24;;;;;;;4.05;2.90;;;;;;;;;;5031349;28;20094;-76
2022/04/16 03:29:49;;;;;;;4.13;2.60;;;;;;;;;;5013570;28;20057;-76
2022/04/16 03:32:15;;;;;;;3.17;2.60;;;;;;;;;;5031327;28;20489;-77
2022/04/16 03:34:40;;;;;;;2.88;2.33;;;;;;;;;;5031733;28;20017;-76
2022/04/16 03:37:06;;;;;;;3.28;2.45;;;;;;;;;;5031664;28;20041;-76
2022/04/16 03:39:31;;;;;;;2.55;2.33;;;;;;;;;;5031309;28;20036;-77
2022/04/16 03:41:56;;;;;;;4.18;3.05;;;;;;;;;;5031706;28;20029;-76
2022/04/16 03:44:22;;;;;;;3.55;2.65;;;;;;;;;;5031443;28;20033;-76
2022/04/16 03:46:47;;;;;;;3.65;2.75;;;;;;;;;;5031511;28;20049;-76
2022/04/16 03:49:13;;;;;;;2.85;2.40;;;;;;;;;;5030728;28;20236;-76
2022/04/16 03:51:38;;;;;;;3.22;2.67;;;;;;;;;;5031725;28;20021;-76
2022/04/16 04:02:15;;;;;;;3.13;2.72;;;;;;;;;;5030673;28;20059;-76
2022/04/16 04:04:43;;;;;;;4.20;2.83;;;;;;;;;;5030748;28;20041;-77
2022/04/16 04:07:11;;;;;;;2.72;2.28;;;;;;;;;;5030187;28;20025;-77
2022/04/16 04:09:38;;;;;;;3.67;3.30;;;;;;;;;;5029931;28;20073;-76
2022/04/16 04:12:08;;;;;;;2.78;2.50;;;;;;;;;;5030172;28;20492;-76
2022/04/16 04:14:37;;;;;;;3.78;2.88;;;;;;;;;;5012448;28;20029;-76
2022/04/16 04:17:03;;;;;;;3.05;2.63;;;;;;;;;;5030131;28;20048;-76
2022/04/16 04:19:28;;;;;;;3.08;2.75;;;;;;;;;;5012111;28;20065;-76
2022/04/16 04:21:53;;;;;;;3.15;2.40;;;;;;;;;;5029968;28;20017;-76
2022/04/16 04:24:19;;;;;;;3.08;2.60;;;;;;;;;;5030479;28;20196;-76
2022/04/16 04:26:44;;;;;;;3.75;2.47;;;;;;;;;;5030766;28;20083;-76
2022/04/16 04:29:09;;;;;;;4.18;2.50;;;;;;;;;;5031067;28;20453;-76
2022/04/16 04:31:35;;;;;;;3.13;2.50;;;;;;;;;;5031113;28;20021;-76
2022/04/16 04:34:00;;;;;;;5.53;2.85;;;;;;;;;;5030768;28;20029;-76
2022/04/16 04:36:25;;;;;;;3.20;2.70;;;;;;;;;;5030278;28;20483;-76
2022/04/16 04:38:50;;;;;;;2.53;2.33;;;;;;;;;;5029493;28;20116;-76
2022/04/16 04:41:18;;;;;;;4.32;2.50;;;;;;;;;;5023548;28;20017;-76
2022/04/16 04:43:43;;;;;;;3.45;2.70;;;;;;;;;;5029382;28;20057;-76
2022/04/16 04:46:08;;;;;;;3.47;2.90;;;;;;;;;;5030040;28;20078;-75
2022/04/16 04:48:34;;;;;;;3.22;2.60;;;;;;;;;;5029724;28;20040;-75
2022/04/16 04:50:59;;;;;;;4.78;2.85;;;;;;;;;;5029957;28;20032;-75
2022/04/16 04:53:24;;;;;;;3.72;2.80;;;;;;;;;;5030021;28;20022;-75
2022/04/16 04:55:49;;;;;;;3.38;2.70;;;;;;;;;;5030296;28;20021;-76
2022/04/16 04:58:15;;;;;;;4.32;2.97;;;;;;;;;;5029610;28;20041;-75
2022/04/16 05:00:40;;;;;;;3.08;2.80;;;;;;;;;;5033769;28;20022;-75
2022/04/16 05:03:05;;;;;;;3.92;3.38;;;;;;;;;;5032896;28;20577;-75
2022/04/16 05:05:31;;;;;;;4.25;3.00;;;;;;;;;;5015576;28;20045;-75
2022/04/16 05:07:56;;;;;;;3.55;2.88;;;;;;;;;;5033318;28;20037;-76
2022/04/16 05:10:22;;;;;;;6.15;3.13;;;;;;;;;;5033579;28;20060;-75
2022/04/16 05:12:47;;;;;;;6.18;4.88;;;;;;;;;;5015365;28;20111;-75
2022/04/16 05:15:12;;;;;;;4.18;3.25;;;;;;;;;;5033294;28;20030;-75
2022/04/16 05:17:38;;;;;;;4.57;3.25;;;;;;;;;;5033025;28;20368;-75
2022/04/16 05:20:06;;;;;;;4.57;3.47;;;;;;;;;;5032863;28;20116;-75
2022/04/16 05:22:31;;;;;;;3.97;3.10;;;;;;;;;;5032929;28;20017;-75
2022/04/16 05:24:57;;;;;;;6.85;3.70;;;;;;;;;;5032812;28;20171;-75
2022/04/16 05:27:22;;;;;;;3.83;3.40;;;;;;;;;;5032979;28;20025;-75
2022/04/16 05:30:04;;;;;;;3.88;3.30;;;;;;;;;;5032971;28;20025;-75
2022/04/16 05:32:37;;;;;;;5.50;3.50;;;;;;;;;;5032808;28;20053;-76
2022/04/16 05:35:07;;;;;;;4.10;3.25;;;;;;;;;;5032804;28;20029;-75
2022/04/16 05:37:33;;;;;;;4.68;3.25;;;;;;;;;;5033240;28;20395;-75
2022/04/16 05:39:58;;;;;;;3.90;3.40;;;;;;;;;;5014742;28;20033;-76
2022/04/16 05:42:23;;;;;;;4.05;3.38;;;;;;;;;;5030813;28;20040;-76
2022/04/16 05:44:49;;;;;;;4.78;3.42;;;;;;;;;;5032344;28;20483;-75
2022/04/16 05:47:14;;;;;;;4.25;3.50;;;;;;;;;;5032755;28;20091;-75
2022/04/16 05:49:40;;;;;;;3.85;3.13;;;;;;;;;;5032412;28;20071;-75
2022/04/16 05:52:05;;;;;;;4.53;3.45;;;;;;;;;;5032460;28;20541;-75
2022/04/16 05:54:31;;;;;;;4.15;3.38;;;;;;;;;;5032445;28;20053;-75
2022/04/16 05:56:56;;;;;;;5.72;3.50;;;;;;;;;;5032567;28;20483;-75
2022/04/16 05:59:25;;;;;;;4.53;3.63;;;;;;;;;;5032391;28;20024;-75
2022/04/16 06:01:50;;;;;;;6.93;3.95;;;;;;;;;;5027960;28;20022;-76
2022/04/16 06:04:15;;;;;;;5.32;3.72;;;;;;;;;;5013373;28;20084;-76
2022/04/16 06:06:44;;;;;;;5.65;3.75;;;;;;;;;;4995476;28;20112;-75
2022/04/16 06:09:09;;;;;;;4.60;3.42;;;;;;;;;;5016866;28;20124;-75
2022/04/16 06:11:35;;;;;;;4.32;3.83;;;;;;;;;;5031977;28;20025;-75
2022/04/16 06:14:00;;;;;;;5.57;4.05;;;;;;;;;;5032199;28;20032;-76
2022/04/16 06:16:26;;;;;;;4.60;3.70;;;;;;;;;;5032929;28;20083;-76
2022/04/16 06:18:51;;;;;;;4.25;3.63;;;;;;;;;;5032325;28;20026;-76
2022/04/16 06:21:16;;;;;;;5.13;3.88;;;;;;;;;;5032434;28;20310;-76
2022/04/16 06:23:42;;;;;;;6.68;4.10;;;;;;;;;;5032730;28;20112;-76
2022/04/16 06:26:07;;;;;;;5.32;3.90;;;;;;;;;;5033132;28;20021;-76
2022/04/16 06:28:32;;;;;;;6.18;4.88;;;;;;;;;;5032593;28;20470;-76
2022/04/16 06:30:58;;;;;;;5.30;3.88;;;;;;;;;;5033144;28;20045;-76
2022/04/16 06:33:23;;;;;;;5.80;4.30;;;;;;;;;;5032827;28;20025;-76
2022/04/16 06:35:48;;;;;;;4.72;3.97;;;;;;;;;;5032095;28;20052;-77
2022/04/16 06:38:14;;;;;;;5.47;3.78;;;;;;;;;;5031778;28;20025;-77
2022/04/16 06:40:40;;;;;;;5.00;3.67;;;;;;;;;;5032218;28;20025;-76
2022/04/16 06:43:05;;;;;;;4.57;4.07;;;;;;;;;;5027637;28;20037;-76
2022/04/16 06:45:31;;;;;;;6.45;4.20;;;;;;;;;;5014187;28;20071;-76
2022/04/16 06:47:56;;;;;;;6.00;4.15;;;;;;;;;;5031781;28;20076;-77
2022/04/16 06:50:21;;;;;;;5.28;3.83;;;;;;;;;;5032348;28;20053;-75
2022/04/16 06:52:49;;;;;;;5.63;4.13;;;;;;;;;;5031838;28;20039;-76
2022/04/16 06:55:14;;;;;;;3.88;3.45;;;;;;;;;;5031831;28;20021;-75
2022/04/16 06:57:39;;;;;;;4.90;3.97;;;;;;;;;;5031219;28;20509;-74
2022/04/16 07:00:05;;;;;;;5.97;5.00;;;;;;;;;;5031558;28;20467;-75
2022/04/16 07:02:31;;;;;;;6.25;4.45;;;;;;;;;;5031539;28;20071;-75
2022/04/16 07:04:56;;;;;;;4.40;3.83;;;;;;;;;;5031565;28;20033;-75
2022/04/16 07:07:22;;;;;;;5.13;4.43;;;;;;;;;;5031554;28;20483;-77
2022/04/16 07:09:47;;;;;;;6.97;5.75;;;;;;;;;;5029954;28;20036;-77
2022/04/16 07:12:12;;;;;;;6.90;5.25;;;;;;;;;;5032550;28;20050;-75
2022/04/16 07:14:39;;;;;;;8.00;6.05;;;;;;;;;;5031731;28;20025;-76
2022/04/16 07:17:05;;;;;;;9.32;6.40;;;;;;;;;;5031082;28;20070;-76
2022/04/16 07:19:31;;;;;;;8.23;6.32;;;;;;;;;;5031380;28;20467;-76
2022/04/16 07:21:57;;;;;;;7.75;6.32;;;;;;;;;;5030578;28;20036;-76
2022/04/16 07:24:25;;;;;;;7.97;5.75;;;;;;;;;;5013471;28;20026;-76
2022/04/16 07:26:52;;;;;;;7.07;5.20;;;;;;;;;;5031368;28;20049;-76
2022/04/16 07:29:18;;;;;;;9.13;6.13;;;;;;;;;;5031291;28;20033;-76
2022/04/16 07:31:44;;;;;;;9.90;6.50;;;;;;;;;;5030971;28;20036;-76
2022/04/16 07:34:09;;;;;;;10.55;7.82;;;;;;;;;;5030998;28;20025;-76
2022/04/16 07:36:34;;;;;;;8.52;5.93;;;;;;;;;;5030833;28;20021;-74
2022/04/16 07:39:00;;;;;;;8.27;6.00;;;;;;;;;;5030784;28;20052;-76
2022/04/16 07:41:25;;;;;;;8.60;6.72;;;;;;;;;;5030804;28;20032;-76
2022/04/16 07:43:50;;;;;;;10.02;5.57;;;;;;;;;;5030837;28;20033;-77
2022/04/16 07:46:21;;;;;;;8.80;5.88;;;;;;;;;;5030857;28;20028;-77
2022/04/16 07:48:46;;;;;;;8.32;5.90;;;;;;;;;;5031343;28;20025;-77
2022/04/16 07:51:12;;;;;;;6.78;5.78;;;;;;;;;;5012911;28;20031;-76
2022/04/16 07:53:37;;;;;;;8.50;6.78;;;;;;;;;;5031089;28;20025;-76
2022/04/16 07:56:03;;;;;;;6.68;5.53;;;;;;;;;;5030334;28;20026;-77
2022/04/16 07:58:28;;;;;;;9.05;7.63;;;;;;;;;;5030663;28;20045;-76
2022/04/16 08:00:53;;;;;;;6.82;5.85;;;;;;;;;;5030175;28;20116;-78
2022/04/16 08:03:19;;;;;;;7.15;5.25;;;;;;;;;;5030201;28;20391;-74
2022/04/16 08:05:44;;;;;;;7.60;6.20;;;;;;;;;;5030237;28;20525;-73
2022/04/16 08:08:10;;;;;;;7.50;5.70;;;;;;;;;;5030220;28;20083;-76
2022/04/16 08:10:37;;;;;;;7.97;7.00;;;;;;;;;;5030543;28;20056;-76
2022/04/16 08:13:03;;;;;;;6.50;5.15;;;;;;;;;;5030267;28;20448;-75
2022/04/16 08:15:28;;;;;;;7.60;5.47;;;;;;;;;;5030044;28;20021;-76
2022/04/16 08:17:54;;;;;;;6.18;5.20;;;;;;;;;;5029777;28;20826;-76
2022/04/16 08:20:19;;;;;;;6.78;5.90;;;;;;;;;;5030004;28;20021;-75
2022/04/16 08:22:46;;;;;;;6.95;5.72;;;;;;;;;;5030013;28;20028;-75
2022/04/16 08:27:48;;;;;;;8.60;6.03;;;;;;;;;;5052329;28;20018;-75
2022/04/16 08:30:15;;;;;;;7.38;5.20;;;;;;;;;;5035206;28;20040;-73
2022/04/16 08:32:41;;;;;;;4.80;4.30;;;;;;;;;;5030255;28;20057;-77
2022/04/16 08:35:08;;;;;;;6.38;4.80;;;;;;;;;;5034134;28;20032;-76
2022/04/16 08:37:34;;;;;;;5.47;4.68;;;;;;;;;;5033671;28;20025;-76
2022/04/16 08:40:00;;;;;;;4.93;3.67;;;;;;;;;;5033745;28;20071;-76
2022/04/16 08:42:25;;;;;;;5.25;3.90;;;;;;;;;;5033769;28;20028;-76
2022/04/16 08:44:51;;;;;;;5.90;5.35;;;;;;;;;;5034189;28;20021;-76
2022/04/16 08:47:17;;;;;;;5.78;4.90;;;;;;;;;;5026179;28;20442;-74
2022/04/16 08:49:44;;;;;;;5.47;4.88;;;;;;;;;;5030718;28;20445;-76
2022/04/16 08:52:10;;;;;;;4.40;4.00;;;;;;;;;;5033569;28;20028;-75
2022/04/16 08:54:38;;;;;;;6.32;4.50;;;;;;;;;;5021268;28;20053;-73
2022/04/16 08:57:04;;;;;;;6.18;4.40;;;;;;;;;;5012988;28;20017;-75
2022/04/16 08:59:30;;;;;;;5.00;4.50;;;;;;;;;;5013442;28;20253;-74
2022/04/16 09:01:58;;;;;;;4.85;4.13;;;;;;;;;;5013599;28;20042;-76
2022/04/16 09:04:23;;;;;;;3.92;3.03;;;;;;;;;;5017046;28;20025;-73
2022/04/16 09:06:56;;;;;;;3.47;3.17;;;;;;;;;;5033354;28;20497;-74
2022/04/16 09:09:21;;;;;;;3.60;3.05;;;;;;;;;;5033407;28;20108;-74
2022/04/16 09:11:50;;;;;;;3.42;3.10;;;;;;;;;;5033120;28;20107;-74
2022/04/16 09:14:16;;;;;;;4.55;2.97;;;;;;;;;;5033619;28;20399;-73
2022/04/16 09:16:42;;;;;;;4.28;3.10;;;;;;;;;;5033075;28;20022;-75
2022/04/16 09:19:17;;;;;;;4.85;3.35;;;;;;;;;;5032122;28;20036;-73
2022/04/16 09:21:43;;;;;;;5.25;3.25;;;;;;;;;;5025460;28;20052;-74
2022/04/16 09:24:10;;;;;;;3.42;3.10;;;;;;;;;;5033086;28;20026;-76
2022/04/16 09:26:37;;;;;;;5.30;3.30;;;;;;;;;;5032795;28;20026;-75
2022/04/16 09:29:07;;;;;;;4.60;3.28;;;;;;;;;;5033143;28;20053;-74
2022/04/16 09:31:34;;;;;;;3.50;2.60;;;;;;;;;;5033350;28;20505;-76
2022/04/16 09:34:00;;;;;;;4.28;3.15;;;;;;;;;;5032663;28;20026;-77
2022/04/16 09:36:26;;;;;;;4.03;2.88;;;;;;;;;;5032699;28;20035;-76
2022/04/16 09:39:06;;;;;;;3.20;2.72;;;;;;;;;;5032623;28;20495;-74
2022/04/16 09:41:36;;;;;;;3.70;3.17;;;;;;;;;;5032945;28;20029;-74
2022/04/16 09:44:02;;;;;;;4.25;2.97;;;;;;;;;;5032627;28;20446;-73
2022/04/16 09:46:30;;;;;;;2.72;2.53;;;;;;;;;;5031643;28;20054;-76
2022/04/16 09:49:03;;;;;;;3.80;3.13;;;;;;;;;;5032200;28;20032;-74
2022/04/16 09:51:33;;;;;;;4.90;3.00;;;;;;;;;;5032510;28;20033;-76
2022/04/16 09:53:59;;;;;;;4.18;3.28;;;;;;;;;;5032950;28;20048;-74
2022/04/16 09:56:28;;;;;;;3.22;2.67;;;;;;;;;;5032439;28;20502;-73
2022/04/16 09:58:57;;;;;;;2.95;2.60;;;;;;;;;;5032249;28;20104;-75
2022/04/16 10:01:24;;;;;;;4.03;2.53;;;;;;;;;;5032588;28;20041;-75
2022/04/16 10:03:51;;;;;;;3.55;2.58;;;;;;;;;;5032508;28;20061;-74
2022/04/16 10:06:17;;;;;;;2.88;2.45;;;;;;;;;;5032388;28;20472;-75
2022/04/16 10:08:43;;;;;;;3.85;2.40;;;;;;;;;;5028957;28;20021;-73
2022/04/16 10:11:19;;;;;;;2.92;2.60;;;;;;;;;;5033107;28;20037;-75
2022/04/16 10:13:53;;;;;;;2.67;2.47;;;;;;;;;;5026174;28;20056;-76
2022/04/16 10:16:45;;;;;;;4.07;3.05;;;;;;;;;;5032504;28;20033;-74
2022/04/16 10:19:15;;;;;;;4.82;3.45;;;;;;;;;;5031511;28;20025;-76
2022/04/16 10:21:41;;;;;;;4.22;3.20;;;;;;;;;;5032300;28;20483;-75
2022/04/16 10:24:06;;;;;;;2.65;2.08;;;;;;;;;;5032471;28;20033;-76
2022/04/16 10:26:39;;;;;;;2.03;1.83;;;;;;;;;;5030701;28;20029;-77
2022/04/16 10:29:04;;;;;;;2.00;1.60;;;;;;;;;;5031572;28;20037;-77
2022/04/16 10:31:33;;;;;;;2.53;1.80;;;;;;;;;;5031334;28;20026;-80
2022/04/16 10:34:05;;;;;;;2.10;1.90;;;;;;;;;;5031616;28;20552;-77
2022/04/16 10:36:37;;;;;;;;;;;;;;;;;;5031497;28;20025;-76
2022/04/16 10:39:16;;;;;;;2.90;2.38;;;;;;;;;;5030523;28;19913;-75
2022/04/16 10:41:53;;;;;;;2.30;1.90;;;;;;;;;;5031372;28;20104;-74
2022/04/16 10:44:19;;;;;;;6.13;5.22;;;;;;;;;;5031717;28;20101;-76
2022/04/16 10:46:46;;;;;;;2.47;2.25;;;;;;;;;;5051545;28;20024;-75
2022/04/16 10:49:12;;;;;;;3.20;2.90;;;;;;;;;;5053200;28;20225;-74
2022/04/16 10:51:38;;;;;;;6.13;3.03;;;;;;;;;;5045863;28;20098;-74
2022/04/16 10:54:10;;;;;;;2.58;2.35;;;;;;;;;;5033289;28;20025;-75
2022/04/16 10:56:40;;;;;;;3.40;2.08;;;;;;;;;;5032306;28;20022;-75
2022/04/16 10:59:08;;;;;;;4.15;2.45;;;;;;;;;;5032171;28;20021;-76
2022/04/16 11:01:34;;;;;;;2.45;2.08;;;;;;;;;;5031590;28;20083;-76
2022/04/16 11:04:12;;;;;;;2.40;2.20;;;;;;;;;;5032159;28;20021;-75
2022/04/16 11:06:43;;;;;;;4.63;4.32;;;;;;;;;;5032740;28;20026;-74
2022/04/16 11:09:20;;;;;;;2.05;1.85;;;;;;;;;;5031218;28;20048;-74
2022/04/16 11:11:51;;;;;;;2.10;1.70;;;;;;;;;;5031779;28;20057;-73
2022/04/16 11:14:17;;;;;;;2.83;1.90;;;;;;;;;;5031787;28;20438;-75
2022/04/16 11:16:46;;;;;;;2.30;1.80;;;;;;;;;;5031361;28;20055;-76
2022/04/16 11:19:15;;;;;;;2.20;1.40;;;;;;;;;;5031122;28;20033;-73
2022/04/16 11:21:41;;;;;;;1.70;1.60;;;;;;;;;;5031084;28;20681;-73
2022/04/16 11:24:07;;;;;;;2.22;1.90;;;;;;;;;;5031027;28;20093;-74
2022/04/16 11:34:52;;;;;;;3.67;2.10;;;;;;;;;;5031391;28;20115;-72
2022/04/16 11:37:18;;;;;;;2.75;1.77;;;;;;;;;;5030926;28;20026;-74
2022/04/16 11:39:45;;;;;;;1.92;1.50;;;;;;;;;;5030333;28;20029;-74
2022/04/16 11:42:10;;;;;;;3.38;1.75;;;;;;;;;;5030835;28;20049;-72
2022/04/16 11:44:45;;;;;;;2.05;1.80;;;;;;;;;;5029191;28;20494;-76
2022/04/16 11:47:21;;;;;;;2.47;2.20;;;;;;;;;;5027700;28;20035;-76
2022/04/16 11:49:49;;;;;;;5.40;1.90;;;;;;;;;;5027286;28;20112;-76
2022/04/16 11:52:15;;;;;;;3.70;2.65;;;;;;;;;;5027957;28;20090;-75
2022/04/16 11:54:41;;;;;;;2.05;1.80;;;;;;;;;;5029041;28;20475;-74
2022/04/16 11:57:07;;;;;;;2.58;2.38;;;;;;;;;;5030705;28;20537;-73
2022/04/16 11:59:34;;;;;;;2.03;1.55;;;;;;;;;;5029403;28;20112;-73
2022/04/16 12:02:08;;;;;;;3.28;1.80;;;;;;;;;;5030411;28;20053;-75
2022/04/16 12:04:38;;;;;;;1.60;1.50;;;;;;;;;;5030643;28;20025;-77
2022/04/16 12:07:13;;;;;;;3.95;3.53;;;;;;;;;;5031933;28;20475;-75
2022/04/16 12:09:45;;;;;;;1.70;1.58;;;;;;;;;;5029675;28;20033;-73
2022/04/16 12:12:19;;;;;;;3.22;2.53;;;;;;;;;;5030164;28;20079;-75
2022/04/16 12:14:52;;;;;;;2.08;1.50;;;;;;;;;;5030241;28;20033;-75
2022/04/16 12:17:30;;;;;;;2.20;1.92;;;;;;;;;;5030969;28;20628;-74
2022/04/16 12:20:06;;;;;;;1.52;1.20;;;;;;;;;;5030236;28;20079;-76
2022/04/16 12:22:52;;;;;;;1.20;1.10;;;;;;;;;;5029736;28;20022;-72
2022/04/16 12:25:20;;;;;;;2.47;1.20;;;;;;;;;;5030091;28;20036;-68
2022/04/16 12:27:47;;;;;;;1.95;1.17;;;;;;;;;;5030375;28;20096;-77
2022/04/16 12:30:20;;;;;;;1.58;1.20;;;;;;;;;;5029791;28;20056;-74
2022/04/16 12:33:24;;;;;;;1.30;1.20;;;;;;;;;;5030082;28;20514;-76
2022/04/16 12:35:55;;;;;;;3.22;1.40;;;;;;;;;;4930255;29;20491;-75
2022/04/16 12:38:21;;;;;;;1.50;1.20;;;;;;;;;;5015011;28;20060;-78
2022/04/16 12:40:46;;;;;;;1.17;1.05;;;;;;;;;;5029863;28;20079;-76
2022/04/16 12:43:12;;;;;;;1.33;1.13;;;;;;;;;;5030156;28;20026;-75
2022/04/16 12:45:37;;;;;;;1.98;1.30;;;;;;;;;;5030461;28;20033;-77
2022/04/16 12:48:03;;;;;;;1.42;1.33;;;;;;;;;;5030183;28;20025;-75
2022/04/16 12:50:32;;;;;;;1.52;1.10;;;;;;;;;;5030111;28;20039;-74
2022/04/16 12:53:01;;;;;;;1.40;1.30;;;;;;;;;;5030070;28;20025;-74
2022/04/16 12:55:28;;;;;;;2.78;1.45;;;;;;;;;;5029740;28;20180;-74
2022/04/16 12:57:54;;;;;;;1.42;1.27;;;;;;;;;;5030230;28;20101;-76
2022/04/16 13:00:20;;;;;;;1.38;1.10;;;;;;;;;;5030431;28;20156;-74
2022/04/16 13:02:46;;;;;;;1.73;1.20;;;;;;;;;;5030668;28;20025;-77
2022/04/16 13:05:14;;;;;;;1.40;1.20;;;;;;;;;;5030485;28;20021;-76
2022/04/16 13:07:44;;;;;;;2.20;1.58;;;;;;;;;;5030487;28;20479;-75
2022/04/16 13:10:10;;;;;;;2.03;1.45;;;;;;;;;;5012146;28;20026;-75
2022/04/16 13:12:37;;;;;;;2.90;1.40;;;;;;;;;;5030149;28;20029;-77
2022/04/16 13:15:04;;;;;;;1.20;1.10;;;;;;;;;;5012644;28;20022;-76
2022/04/16 13:17:30;;;;;;;1.77;1.30;;;;;;;;;;5030216;28;20035;-75
2022/04/16 13:19:55;;;;;;;1.90;1.10;;;;;;;;;;5013391;28;20036;-79
2022/04/16 13:22:21;;;;;;;1.20;1.00;;;;;;;;;;5033966;28;20457;-77
2022/04/16 13:24:46;;;;;;;2.15;1.23;;;;;;;;;;5033917;28;20562;-75
2022/04/16 13:27:11;;;;;;;2.65;1.00;;;;;;;;;;5016251;28;20027;-76
2022/04/16 13:29:38;;;;;;;1.77;1.50;;;;;;;;;;5032840;28;20345;-76
2022/04/16 13:32:05;;;;;;;2.25;1.00;;;;;;;;;;5033332;28;20105;-78
2022/04/16 13:34:30;;;;;;;1.98;1.60;;;;;;;;;;5033485;28;20017;-76
2022/04/16 13:36:56;;;;;;;1.67;1.23;;;;;;;;;;5033805;28;20029;-76
2022/04/16 13:42:06;;;;;;;1.30;1.20;;;;;;;;;;5058161;28;20025;-80
2022/04/16 13:44:32;;;;;;;6.72;3.22;;;;;;;;;;5031318;28;20392;-75
2022/04/16 13:46:57;;;;;;;2.03;1.40;;;;;;;;;;5035113;28;20100;-77
2022/04/16 13:49:22;;;;;;;1.70;1.20;;;;;;;;;;5034676;28;20394;-78
2022/04/16 13:51:48;;;;;;;1.95;1.50;;;;;;;;;;5034329;28;20030;-76
2022/04/16 13:54:13;;;;;;;1.25;1.15;;;;;;;;;;5035926;28;20013;-77
2022/04/16 13:56:39;;;;;;;1.60;1.25;;;;;;;;;;5033649;28;20079;-76
2022/04/16 13:59:06;;;;;;;2.13;1.45;;;;;;;;;;5033336;28;20025;-76
2022/04/16 14:01:33;;;;;;;2.13;1.90;;;;;;;;;;5033720;28;20475;-78
2022/04/16 14:03:59;;;;;;;5.10;2.55;;;;;;;;;;5033104;28;20394;-77
2022/04/16 14:06:25;;;;;;;2.65;1.45;;;;;;;;;;5034455;28;20057;-79
2022/04/16 14:08:50;;;;;;;1.80;1.35;;;;;;;;;;5034184;28;20049;-76
2022/04/16 14:11:16;;;;;;;4.25;3.17;;;;;;;;;;5032450;28;20021;-75
2022/04/16 14:13:41;;;;;;;2.88;1.80;;;;;;;;;;5033721;28;20018;-76
2022/04/16 14:16:10;;;;;;;1.52;1.20;;;;;;;;;;5034150;28;20189;-73
2022/04/16 14:18:36;;;;;;;2.47;1.40;;;;;;;;;;5032463;28;20302;-78
2022/04/16 14:21:01;;;;;;;1.90;1.30;;;;;;;;;;5032679;28;20467;-74
2022/04/16 14:23:27;;;;;;;2.17;1.60;;;;;;;;;;5032102;28;20029;-75
2022/04/16 14:25:54;;;;;;;2.35;1.98;;;;;;;;;;5032550;28;20033;-76
2022/04/16 14:28:20;;;;;;;1.73;1.52;;;;;;;;;;5032923;28;20083;-75
2022/04/16 14:30:45;;;;;;;2.35;1.42;;;;;;;;;;5032047;28;20025;-75
2022/04/16 14:33:10;;;;;;;2.92;1.40;;;;;;;;;;5031465;28;20479;-75
2022/04/16 14:35:36;;;;;;;3.15;1.35;;;;;;;;;;5032382;28;20456;-77
2022/04/16 14:38:03;;;;;;;2.50;1.40;;;;;;;;;;5054948;22;20599;-72
2022/04/16 14:40:29;;;;;;;2.35;1.63;;;;;;;;;;5030970;28;20140;-71
2022/04/16 14:42:55;;;;;;;3.20;1.40;;;;;;;;;;5031856;28;20021;-71
2022/04/16 14:45:20;;;;;;;3.38;1.67;;;;;;;;;;5031930;28;20071;-74
2022/04/16 14:47:46;;;;;;;2.65;1.77;;;;;;;;;;5031505;28;20080;-74
2022/04/16 14:50:12;;;;;;;3.67;1.77;;;;;;;;;;5031215;28;20053;-72
2022/04/16 14:52:37;;;;;;;2.20;1.80;;;;;;;;;;5031396;28;20474;-72
2022/04/16 14:55:04;;;;;;;2.20;1.60;;;;;;;;;;5031391;28;20029;-73
2022/04/16 14:57:29;;;;;;;3.13;1.60;;;;;;;;;;5031143;28;20084;-70
2022/04/16 14:59:55;;;;;;;4.75;2.95;;;;;;;;;;5031282;28;20029;-70
2022/04/16 15:02:20;;;;;;;2.42;2.03;;;;;;;;;;5031358;28;20280;-70
2022/04/16 15:04:47;;;;;;;2.08;1.83;;;;;;;;;;5032096;28;20031;-70
2022/04/16 15:07:14;;;;;;;2.92;1.75;;;;;;;;;;5027973;28;20030;-70
2022/04/16 15:09:40;;;;;;;4.40;2.05;;;;;;;;;;5011475;28;20489;-70